sensor_id;sensor_type;location;lat;lon;timestamp;P1;durP1;ratioP1;P2;durP2;ratioP2
50443;SDS011;36370;52.216;21.142;2022-08-04T00:04:33;13.15;;;10.65;;
50443;SDS011;36370;52.216;21.142;2022-08-04T00:08:49;13.20;;;10.25;;
50443;SDS011;36370;52.216;21.142;2022-08-04T00:13:06;11.77;;;10.55;;
50443;SDS011;36370;52.216;21.142;2022-08-04T00:17:10;12.00;;;10.15;;
50443;SDS011;36370;52.216;21.142;2022-08-04T00:21:13;13.18;;;9.77;;
50443;SDS011;36370;52.216;21.142;2022-08-04T00:25:19;15.27;;;11.05;;
50443;SDS011;36370;52.216;21.142;2022-08-04T00:29:21;13.00;;;11.25;;
50443;SDS011;36370;52.216;21.142;2022-08-04T00:33:24;14.57;;;11.02;;
50443;SDS011;36370;52.216;21.142;2022-08-04T00:37:27;12.40;;;11.10;;
50443;SDS011;36370;52.216;21.142;2022-08-04T00:41:34;15.10;;;11.35;;
50443;SDS011;36370;52.216;21.142;2022-08-04T00:51:24;11.73;;;10.32;;
50443;SDS011;36370;52.216;21.142;2022-08-04T01:17:06;13.40;;;10.32;;
50443;SDS011;36370;52.216;21.142;2022-08-04T01:25:37;12.85;;;10.38;;
50443;SDS011;36370;52.216;21.142;2022-08-04T01:29:58;12.05;;;10.55;;
50443;SDS011;36370;52.216;21.142;2022-08-04T01:34:03;14.07;;;10.93;;
50443;SDS011;36370;52.216;21.142;2022-08-04T01:42:35;17.05;;;11.68;;
50443;SDS011;36370;52.216;21.142;2022-08-04T01:46:37;11.27;;;9.32;;
50443;SDS011;36370;52.216;21.142;2022-08-04T01:50:41;14.45;;;10.55;;
50443;SDS011;36370;52.216;21.142;2022-08-04T01:54:45;11.60;;;9.85;;
50443;SDS011;36370;52.216;21.142;2022-08-04T01:58:49;12.38;;;9.73;;
50443;SDS011;36370;52.216;21.142;2022-08-04T02:02:51;13.57;;;11.15;;
50443;SDS011;36370;52.216;21.142;2022-08-04T02:11:26;14.52;;;12.40;;
50443;SDS011;36370;52.216;21.142;2022-08-04T02:15:33;13.10;;;10.23;;
50443;SDS011;36370;52.216;21.142;2022-08-04T02:20:29;12.05;;;10.20;;
50443;SDS011;36370;52.216;21.142;2022-08-04T02:24:12;13.27;;;11.05;;
50443;SDS011;36370;52.216;21.142;2022-08-04T02:32:24;14.45;;;11.80;;
50443;SDS011;36370;52.216;21.142;2022-08-04T02:36:39;15.10;;;12.05;;
50443;SDS011;36370;52.216;21.142;2022-08-04T02:40:42;12.65;;;11.20;;
50443;SDS011;36370;52.216;21.142;2022-08-04T02:44:50;13.55;;;10.57;;
50443;SDS011;36370;52.216;21.142;2022-08-04T02:48:53;12.52;;;11.27;;
50443;SDS011;36370;52.216;21.142;2022-08-04T02:52:57;15.48;;;11.73;;
50443;SDS011;36370;52.216;21.142;2022-08-04T02:57:05;13.02;;;10.45;;
50443;SDS011;36370;52.216;21.142;2022-08-04T03:01:13;14.00;;;11.93;;
50443;SDS011;36370;52.216;21.142;2022-08-04T03:05:17;13.23;;;11.80;;
50443;SDS011;36370;52.216;21.142;2022-08-04T03:23:06;14.50;;;11.15;;
50443;SDS011;36370;52.216;21.142;2022-08-04T03:31:39;13.23;;;11.68;;
50443;SDS011;36370;52.216;21.142;2022-08-04T03:36:22;14.82;;;12.15;;
50443;SDS011;36370;52.216;21.142;2022-08-04T03:40:59;12.63;;;11.32;;
50443;SDS011;36370;52.216;21.142;2022-08-04T03:45:15;14.43;;;12.00;;
50443;SDS011;36370;52.216;21.142;2022-08-04T04:03:32;12.60;;;10.52;;
50443;SDS011;36370;52.216;21.142;2022-08-04T04:12:31;13.93;;;12.43;;
50443;SDS011;36370;52.216;21.142;2022-08-04T04:25:23;15.50;;;9.85;;
50443;SDS011;36370;52.216;21.142;2022-08-04T04:29:45;20.85;;;8.90;;
50443;SDS011;36370;52.216;21.142;2022-08-04T04:51:12;10.27;;;7.47;;
50443;SDS011;36370;52.216;21.142;2022-08-04T04:55:39;8.82;;;6.68;;
50443;SDS011;36370;52.216;21.142;2022-08-04T04:59:56;9.43;;;6.60;;
50443;SDS011;36370;52.216;21.142;2022-08-04T05:12:59;8.20;;;7.07;;
50443;SDS011;36370;52.216;21.142;2022-08-04T05:17:34;10.43;;;6.50;;
50443;SDS011;36370;52.216;21.142;2022-08-04T05:22:03;10.00;;;6.60;;
50443;SDS011;36370;52.216;21.142;2022-08-04T05:26:15;16.50;;;6.88;;
50443;SDS011;36370;52.216;21.142;2022-08-04T05:30:21;9.90;;;5.93;;
50443;SDS011;36370;52.216;21.142;2022-08-04T05:34:29;9.23;;;5.68;;
50443;SDS011;36370;52.216;21.142;2022-08-04T05:38:37;9.13;;;5.60;;
50443;SDS011;36370;52.216;21.142;2022-08-04T05:42:41;13.23;;;5.10;;
50443;SDS011;36370;52.216;21.142;2022-08-04T05:46:45;7.75;;;4.60;;
50443;SDS011;36370;52.216;21.142;2022-08-04T05:50:55;11.27;;;4.88;;
50443;SDS011;36370;52.216;21.142;2022-08-04T05:55:02;11.00;;;5.28;;
50443;SDS011;36370;52.216;21.142;2022-08-04T05:59:06;9.00;;;4.88;;
50443;SDS011;36370;52.216;21.142;2022-08-04T06:03:11;11.07;;;4.95;;
50443;SDS011;36370;52.216;21.142;2022-08-04T06:07:16;10.15;;;4.47;;
50443;SDS011;36370;52.216;21.142;2022-08-04T06:11:19;11.13;;;5.15;;
50443;SDS011;36370;52.216;21.142;2022-08-04T06:15:22;8.85;;;4.72;;
50443;SDS011;36370;52.216;21.142;2022-08-04T06:19:32;9.15;;;4.13;;
50443;SDS011;36370;52.216;21.142;2022-08-04T06:23:57;8.60;;;4.03;;
50443;SDS011;36370;52.216;21.142;2022-08-04T06:28:05;4.63;;;3.55;;
50443;SDS011;36370;52.216;21.142;2022-08-04T06:32:10;5.18;;;3.28;;
50443;SDS011;36370;52.216;21.142;2022-08-04T06:36:42;7.47;;;3.22;;
50443;SDS011;36370;52.216;21.142;2022-08-04T06:40:45;4.53;;;3.13;;
50443;SDS011;36370;52.216;21.142;2022-08-04T06:44:48;14.13;;;3.28;;
50443;SDS011;36370;52.216;21.142;2022-08-04T06:48:53;7.20;;;3.30;;
50443;SDS011;36370;52.216;21.142;2022-08-04T06:52:57;9.27;;;2.67;;
50443;SDS011;36370;52.216;21.142;2022-08-04T06:56:59;8.18;;;3.05;;
50443;SDS011;36370;52.216;21.142;2022-08-04T07:01:03;7.68;;;3.05;;
50443;SDS011;36370;52.216;21.142;2022-08-04T07:05:06;13.15;;;3.88;;
50443;SDS011;36370;52.216;21.142;2022-08-04T07:09:11;9.60;;;3.35;;
50443;SDS011;36370;52.216;21.142;2022-08-04T07:13:13;5.40;;;2.72;;
50443;SDS011;36370;52.216;21.142;2022-08-04T07:17:16;9.52;;;2.90;;
50443;SDS011;36370;52.216;21.142;2022-08-04T07:21:22;5.53;;;2.65;;
50443;SDS011;36370;52.216;21.142;2022-08-04T07:25:24;6.20;;;2.70;;
50443;SDS011;36370;52.216;21.142;2022-08-04T07:29:47;8.25;;;2.55;;
50443;SDS011;36370;52.216;21.142;2022-08-04T07:33:49;3.55;;;2.15;;
50443;SDS011;36370;52.216;21.142;2022-08-04T07:38:13;5.90;;;2.65;;
50443;SDS011;36370;52.216;21.142;2022-08-04T07:42:17;5.90;;;2.63;;
50443;SDS011;36370;52.216;21.142;2022-08-04T07:46:21;4.18;;;2.65;;
50443;SDS011;36370;52.216;21.142;2022-08-04T07:50:23;4.80;;;2.25;;
50443;SDS011;36370;52.216;21.142;2022-08-04T07:54:27;4.85;;;2.00;;
50443;SDS011;36370;52.216;21.142;2022-08-04T07:58:29;8.05;;;2.38;;
50443;SDS011;36370;52.216;21.142;2022-08-04T08:02:32;5.38;;;2.00;;
50443;SDS011;36370;52.216;21.142;2022-08-04T08:06:36;4.40;;;2.33;;
50443;SDS011;36370;52.216;21.142;2022-08-04T08:10:45;6.70;;;2.42;;
50443;SDS011;36370;52.216;21.142;2022-08-04T08:14:48;4.88;;;2.17;;
50443;SDS011;36370;52.216;21.142;2022-08-04T08:18:51;6.05;;;2.30;;
50443;SDS011;36370;52.216;21.142;2022-08-04T08:22:53;5.00;;;1.98;;
50443;SDS011;36370;52.216;21.142;2022-08-04T08:26:55;11.25;;;2.22;;
50443;SDS011;36370;52.216;21.142;2022-08-04T08:30:58;4.43;;;2.60;;
50443;SDS011;36370;52.216;21.142;2022-08-04T08:35:08;4.45;;;1.95;;
50443;SDS011;36370;52.216;21.142;2022-08-04T09:14:14;3.78;;;1.75;;
50443;SDS011;36370;52.216;21.142;2022-08-04T09:28:01;13.35;;;2.85;;
50443;SDS011;36370;52.216;21.142;2022-08-04T10:03:02;7.73;;;3.07;;
50443;SDS011;36370;52.216;21.142;2022-08-04T10:29:42;2.42;;;2.22;;
50443;SDS011;36370;52.216;21.142;2022-08-04T10:34:07;5.47;;;2.40;;
50443;SDS011;36370;52.216;21.142;2022-08-04T10:38:19;6.63;;;2.28;;
50443;SDS011;36370;52.216;21.142;2022-08-04T10:42:28;4.00;;;2.25;;
50443;SDS011;36370;52.216;21.142;2022-08-04T10:46:53;5.07;;;2.38;;
50443;SDS011;36370;52.216;21.142;2022-08-04T10:55:06;2.85;;;2.25;;
50443;SDS011;36370;52.216;21.142;2022-08-04T10:59:15;5.70;;;2.50;;
50443;SDS011;36370;52.216;21.142;2022-08-04T11:03:23;2.92;;;2.25;;
50443;SDS011;36370;52.216;21.142;2022-08-04T11:07:32;3.83;;;2.78;;
50443;SDS011;36370;52.216;21.142;2022-08-04T11:11:42;3.78;;;2.20;;
50443;SDS011;36370;52.216;21.142;2022-08-04T11:16:03;2.22;;;2.03;;
50443;SDS011;36370;52.216;21.142;2022-08-04T11:20:21;3.35;;;2.38;;
50443;SDS011;36370;52.216;21.142;2022-08-04T11:29:04;2.53;;;2.15;;
50443;SDS011;36370;52.216;21.142;2022-08-04T11:37:45;6.45;;;2.42;;
50443;SDS011;36370;52.216;21.142;2022-08-04T11:41:57;7.10;;;2.55;;
50443;SDS011;36370;52.216;21.142;2022-08-04T11:46:23;2.70;;;1.98;;
50443;SDS011;36370;52.216;21.142;2022-08-04T11:54:43;7.03;;;2.50;;
50443;SDS011;36370;52.216;21.142;2022-08-04T11:58:55;6.65;;;2.30;;
50443;SDS011;36370;52.216;21.142;2022-08-04T12:11:53;5.50;;;2.42;;
50443;SDS011;36370;52.216;21.142;2022-08-04T12:16:23;4.95;;;2.28;;
50443;SDS011;36370;52.216;21.142;2022-08-04T12:20:33;2.83;;;2.35;;
50443;SDS011;36370;52.216;21.142;2022-08-04T12:24:46;2.40;;;2.20;;
50443;SDS011;36370;52.216;21.142;2022-08-04T12:28:59;2.53;;;1.95;;
50443;SDS011;36370;52.216;21.142;2022-08-04T12:33:30;2.17;;;1.88;;
50443;SDS011;36370;52.216;21.142;2022-08-04T12:38:04;3.75;;;2.10;;
50443;SDS011;36370;52.216;21.142;2022-08-04T12:46:35;2.75;;;2.00;;
50443;SDS011;36370;52.216;21.142;2022-08-04T12:50:39;2.25;;;2.03;;
50443;SDS011;36370;52.216;21.142;2022-08-04T12:54:42;5.10;;;2.45;;
50443;SDS011;36370;52.216;21.142;2022-08-04T12:58:48;3.95;;;2.00;;
50443;SDS011;36370;52.216;21.142;2022-08-04T13:02:53;3.03;;;1.92;;
50443;SDS011;36370;52.216;21.142;2022-08-04T13:11:11;3.22;;;1.77;;
50443;SDS011;36370;52.216;21.142;2022-08-04T13:15:19;5.10;;;1.60;;
50443;SDS011;36370;52.216;21.142;2022-08-04T13:23:29;3.45;;;1.85;;
50443;SDS011;36370;52.216;21.142;2022-08-04T13:27:51;4.20;;;1.90;;
50443;SDS011;36370;52.216;21.142;2022-08-04T13:31:58;3.80;;;1.67;;
50443;SDS011;36370;52.216;21.142;2022-08-04T13:36:02;1.98;;;1.73;;
50443;SDS011;36370;52.216;21.142;2022-08-04T13:40:07;3.22;;;1.70;;
50443;SDS011;36370;52.216;21.142;2022-08-04T13:44:12;5.50;;;1.90;;
50443;SDS011;36370;52.216;21.142;2022-08-04T13:48:21;3.50;;;1.70;;
50443;SDS011;36370;52.216;21.142;2022-08-04T13:52:33;4.22;;;1.83;;
50443;SDS011;36370;52.216;21.142;2022-08-04T13:56:37;5.90;;;1.98;;
50443;SDS011;36370;52.216;21.142;2022-08-04T14:00:46;4.85;;;2.20;;
50443;SDS011;36370;52.216;21.142;2022-08-04T14:04:54;2.40;;;1.85;;
50443;SDS011;36370;52.216;21.142;2022-08-04T14:13:16;1.63;;;1.52;;
50443;SDS011;36370;52.216;21.142;2022-08-04T14:17:42;6.22;;;2.30;;
50443;SDS011;36370;52.216;21.142;2022-08-04T14:21:44;3.65;;;2.00;;
50443;SDS011;36370;52.216;21.142;2022-08-04T14:25:46;3.53;;;2.13;;
50443;SDS011;36370;52.216;21.142;2022-08-04T14:29:48;2.97;;;1.88;;
50443;SDS011;36370;52.216;21.142;2022-08-04T14:33:51;3.55;;;2.22;;
50443;SDS011;36370;52.216;21.142;2022-08-04T14:38:09;3.72;;;1.60;;
50443;SDS011;36370;52.216;21.142;2022-08-04T14:42:12;2.60;;;1.85;;
50443;SDS011;36370;52.216;21.142;2022-08-04T14:46:16;2.80;;;1.63;;
50443;SDS011;36370;52.216;21.142;2022-08-04T14:50:19;2.65;;;1.42;;
50443;SDS011;36370;52.216;21.142;2022-08-04T14:54:34;2.92;;;1.60;;
50443;SDS011;36370;52.216;21.142;2022-08-04T14:58:36;1.65;;;1.50;;
50443;SDS011;36370;52.216;21.142;2022-08-04T15:02:40;2.58;;;2.03;;
50443;SDS011;36370;52.216;21.142;2022-08-04T15:06:43;2.28;;;1.77;;
50443;SDS011;36370;52.216;21.142;2022-08-04T15:10:48;4.28;;;2.00;;
50443;SDS011;36370;52.216;21.142;2022-08-04T15:14:50;2.17;;;1.73;;
50443;SDS011;36370;52.216;21.142;2022-08-04T15:18:53;2.30;;;1.63;;
50443;SDS011;36370;52.216;21.142;2022-08-04T15:22:58;3.95;;;1.83;;
50443;SDS011;36370;52.216;21.142;2022-08-04T15:27:01;3.83;;;1.60;;
50443;SDS011;36370;52.216;21.142;2022-08-04T15:31:05;5.15;;;2.00;;
50443;SDS011;36370;52.216;21.142;2022-08-04T15:35:30;260.23;;;29.60;;
50443;SDS011;36370;52.216;21.142;2022-08-04T15:39:43;3.92;;;2.10;;
50443;SDS011;36370;52.216;21.142;2022-08-04T15:43:59;1.80;;;1.60;;
50443;SDS011;36370;52.216;21.142;2022-08-04T15:48:27;2.58;;;1.70;;
50443;SDS011;36370;52.216;21.142;2022-08-04T15:57:13;1.38;;;1.27;;
50443;SDS011;36370;52.216;21.142;2022-08-04T16:01:16;2.40;;;1.33;;
50443;SDS011;36370;52.216;21.142;2022-08-04T16:09:25;2.45;;;1.30;;
50443;SDS011;36370;52.216;21.142;2022-08-04T16:18:02;4.47;;;1.55;;
50443;SDS011;36370;52.216;21.142;2022-08-04T16:22:05;2.00;;;1.35;;
50443;SDS011;36370;52.216;21.142;2022-08-04T16:26:08;3.42;;;1.25;;
50443;SDS011;36370;52.216;21.142;2022-08-04T16:30:12;1.60;;;1.23;;
50443;SDS011;36370;52.216;21.142;2022-08-04T16:34:17;3.22;;;1.40;;
50443;SDS011;36370;52.216;21.142;2022-08-04T16:38:58;2.45;;;1.80;;
50443;SDS011;36370;52.216;21.142;2022-08-04T16:43:11;4.90;;;1.70;;
50443;SDS011;36370;52.216;21.142;2022-08-04T16:47:14;4.28;;;1.70;;
50443;SDS011;36370;52.216;21.142;2022-08-04T16:51:48;5.22;;;1.95;;
50443;SDS011;36370;52.216;21.142;2022-08-04T16:55:52;2.20;;;1.65;;
50443;SDS011;36370;52.216;21.142;2022-08-04T16:59:55;2.92;;;1.88;;
50443;SDS011;36370;52.216;21.142;2022-08-04T17:04:01;1.55;;;1.40;;
50443;SDS011;36370;52.216;21.142;2022-08-04T17:12:30;4.63;;;1.77;;
50443;SDS011;36370;52.216;21.142;2022-08-04T17:16:37;2.20;;;1.60;;
50443;SDS011;36370;52.216;21.142;2022-08-04T17:20:43;4.43;;;1.60;;
50443;SDS011;36370;52.216;21.142;2022-08-04T17:25:02;2.22;;;1.70;;
50443;SDS011;36370;52.216;21.142;2022-08-04T17:29:05;5.45;;;1.80;;
50443;SDS011;36370;52.216;21.142;2022-08-04T17:33:11;2.42;;;1.88;;
50443;SDS011;36370;52.216;21.142;2022-08-04T17:37:16;6.35;;;2.00;;
50443;SDS011;36370;52.216;21.142;2022-08-04T17:41:40;2.88;;;1.88;;
50443;SDS011;36370;52.216;21.142;2022-08-04T17:46:12;3.00;;;1.95;;
50443;SDS011;36370;52.216;21.142;2022-08-04T17:50:31;3.75;;;1.85;;
50443;SDS011;36370;52.216;21.142;2022-08-04T17:54:58;4.68;;;2.17;;
50443;SDS011;36370;52.216;21.142;2022-08-04T17:59:04;4.85;;;1.95;;
50443;SDS011;36370;52.216;21.142;2022-08-04T18:03:46;5.63;;;2.58;;
50443;SDS011;36370;52.216;21.142;2022-08-04T18:07:54;2.53;;;1.77;;
50443;SDS011;36370;52.216;21.142;2022-08-04T18:12:29;3.55;;;1.90;;
50443;SDS011;36370;52.216;21.142;2022-08-04T18:16:43;6.32;;;2.58;;
50443;SDS011;36370;52.216;21.142;2022-08-04T18:20:46;4.78;;;2.65;;
50443;SDS011;36370;52.216;21.142;2022-08-04T18:24:51;2.58;;;2.33;;
50443;SDS011;36370;52.216;21.142;2022-08-04T18:28:57;6.90;;;2.50;;
50443;SDS011;36370;52.216;21.142;2022-08-04T18:32:59;7.03;;;2.90;;
50443;SDS011;36370;52.216;21.142;2022-08-04T18:37:22;4.55;;;2.70;;
50443;SDS011;36370;52.216;21.142;2022-08-04T18:41:44;4.35;;;2.20;;
50443;SDS011;36370;52.216;21.142;2022-08-04T18:46:04;3.35;;;2.50;;
50443;SDS011;36370;52.216;21.142;2022-08-04T18:50:15;4.72;;;2.72;;
50443;SDS011;36370;52.216;21.142;2022-08-04T18:54:38;5.80;;;3.20;;
50443;SDS011;36370;52.216;21.142;2022-08-04T18:58:42;8.10;;;3.72;;
50443;SDS011;36370;52.216;21.142;2022-08-04T19:02:46;6.85;;;3.10;;
50443;SDS011;36370;52.216;21.142;2022-08-04T19:06:48;4.80;;;3.55;;
50443;SDS011;36370;52.216;21.142;2022-08-04T19:10:50;4.20;;;3.13;;
50443;SDS011;36370;52.216;21.142;2022-08-04T19:15:00;5.35;;;3.22;;
50443;SDS011;36370;52.216;21.142;2022-08-04T19:19:11;5.03;;;3.50;;
50443;SDS011;36370;52.216;21.142;2022-08-04T19:23:15;5.13;;;3.22;;
50443;SDS011;36370;52.216;21.142;2022-08-04T19:27:37;3.08;;;2.75;;
50443;SDS011;36370;52.216;21.142;2022-08-04T19:31:41;7.45;;;4.30;;
50443;SDS011;36370;52.216;21.142;2022-08-04T19:35:43;4.88;;;3.90;;
50443;SDS011;36370;52.216;21.142;2022-08-04T19:39:51;5.67;;;3.60;;
50443;SDS011;36370;52.216;21.142;2022-08-04T19:43:54;6.75;;;3.90;;
50443;SDS011;36370;52.216;21.142;2022-08-04T19:47:57;4.88;;;4.25;;
50443;SDS011;36370;52.216;21.142;2022-08-04T19:52:19;7.88;;;4.10;;
50443;SDS011;36370;52.216;21.142;2022-08-04T19:56:36;8.70;;;4.10;;
50443;SDS011;36370;52.216;21.142;2022-08-04T20:00:42;8.90;;;4.28;;
50443;SDS011;36370;52.216;21.142;2022-08-04T20:05:04;10.20;;;4.18;;
50443;SDS011;36370;52.216;21.142;2022-08-04T20:09:09;12.80;;;4.60;;
50443;SDS011;36370;52.216;21.142;2022-08-04T20:13:27;9.33;;;5.10;;
50443;SDS011;36370;52.216;21.142;2022-08-04T20:17:39;9.32;;;5.07;;
50443;SDS011;36370;52.216;21.142;2022-08-04T20:22:01;7.80;;;5.05;;
50443;SDS011;36370;52.216;21.142;2022-08-04T20:26:03;14.90;;;6.30;;
50443;SDS011;36370;52.216;21.142;2022-08-04T20:30:06;9.48;;;4.70;;
50443;SDS011;36370;52.216;21.142;2022-08-04T20:34:14;8.60;;;5.47;;
50443;SDS011;36370;52.216;21.142;2022-08-04T20:38:18;9.93;;;5.85;;
50443;SDS011;36370;52.216;21.142;2022-08-04T20:42:34;7.40;;;5.40;;
50443;SDS011;36370;52.216;21.142;2022-08-04T20:46:37;7.80;;;5.25;;
50443;SDS011;36370;52.216;21.142;2022-08-04T20:50:39;9.05;;;5.68;;
50443;SDS011;36370;52.216;21.142;2022-08-04T20:54:42;10.95;;;5.82;;
50443;SDS011;36370;52.216;21.142;2022-08-04T20:58:49;10.88;;;5.35;;
50443;SDS011;36370;52.216;21.142;2022-08-04T21:02:52;9.48;;;6.10;;
50443;SDS011;36370;52.216;21.142;2022-08-04T21:06:55;9.00;;;5.88;;
50443;SDS011;36370;52.216;21.142;2022-08-04T21:10:58;10.52;;;6.72;;
50443;SDS011;36370;52.216;21.142;2022-08-04T21:15:01;9.48;;;5.72;;
50443;SDS011;36370;52.216;21.142;2022-08-04T21:19:23;10.07;;;6.35;;
50443;SDS011;36370;52.216;21.142;2022-08-04T21:23:27;18.08;;;6.72;;
50443;SDS011;36370;52.216;21.142;2022-08-04T21:27:34;10.95;;;6.07;;
50443;SDS011;36370;52.216;21.142;2022-08-04T21:31:40;9.30;;;6.60;;
50443;SDS011;36370;52.216;21.142;2022-08-04T21:35:52;11.48;;;6.10;;
50443;SDS011;36370;52.216;21.142;2022-08-04T21:39:55;14.00;;;6.32;;
50443;SDS011;36370;52.216;21.142;2022-08-04T21:44:16;10.65;;;6.50;;
50443;SDS011;36370;52.216;21.142;2022-08-04T21:48:19;11.38;;;6.90;;
50443;SDS011;36370;52.216;21.142;2022-08-04T21:52:22;9.38;;;5.22;;
50443;SDS011;36370;52.216;21.142;2022-08-04T21:56:24;10.95;;;6.18;;
50443;SDS011;36370;52.216;21.142;2022-08-04T22:00:27;8.32;;;6.20;;
50443;SDS011;36370;52.216;21.142;2022-08-04T22:04:30;10.50;;;6.07;;
50443;SDS011;36370;52.216;21.142;2022-08-04T22:08:33;8.77;;;5.97;;
50443;SDS011;36370;52.216;21.142;2022-08-04T22:12:39;12.02;;;6.50;;
50443;SDS011;36370;52.216;21.142;2022-08-04T22:16:44;7.38;;;5.78;;
50443;SDS011;36370;52.216;21.142;2022-08-04T22:20:47;9.70;;;6.28;;
50443;SDS011;36370;52.216;21.142;2022-08-04T22:24:49;11.68;;;6.20;;
50443;SDS011;36370;52.216;21.142;2022-08-04T22:28:52;11.57;;;6.28;;
50443;SDS011;36370;52.216;21.142;2022-08-04T22:32:55;13.15;;;6.10;;
50443;SDS011;36370;52.216;21.142;2022-08-04T22:36:57;9.50;;;7.00;;
50443;SDS011;36370;52.216;21.142;2022-08-04T22:41:01;7.95;;;5.38;;
50443;SDS011;36370;52.216;21.142;2022-08-04T22:45:06;8.30;;;5.68;;
50443;SDS011;36370;52.216;21.142;2022-08-04T22:49:09;7.28;;;5.38;;
50443;SDS011;36370;52.216;21.142;2022-08-04T22:53:12;9.23;;;6.55;;
50443;SDS011;36370;52.216;21.142;2022-08-04T22:57:18;7.45;;;5.95;;
50443;SDS011;36370;52.216;21.142;2022-08-04T23:01:41;9.50;;;6.82;;
50443;SDS011;36370;52.216;21.142;2022-08-04T23:06:05;9.27;;;6.88;;
50443;SDS011;36370;52.216;21.142;2022-08-04T23:10:12;16.13;;;7.03;;
50443;SDS011;36370;52.216;21.142;2022-08-04T23:14:14;12.25;;;6.78;;
50443;SDS011;36370;52.216;21.142;2022-08-04T23:18:16;15.18;;;7.35;;
50443;SDS011;36370;52.216;21.142;2022-08-04T23:22:18;8.55;;;6.57;;
50443;SDS011;36370;52.216;21.142;2022-08-04T23:26:41;10.10;;;6.50;;
50443;SDS011;36370;52.216;21.142;2022-08-04T23:30:45;11.30;;;6.78;;
50443;SDS011;36370;52.216;21.142;2022-08-04T23:34:47;12.10;;;6.60;;
50443;SDS011;36370;52.216;21.142;2022-08-04T23:38:49;14.52;;;7.00;;
50443;SDS011;36370;52.216;21.142;2022-08-04T23:42:51;12.35;;;7.60;;
50443;SDS011;36370;52.216;21.142;2022-08-04T23:46:59;13.77;;;8.18;;
50443;SDS011;36370;52.216;21.142;2022-08-04T23:51:02;13.75;;;7.65;;
50443;SDS011;36370;52.216;21.142;2022-08-04T23:55:16;13.30;;;7.38;;
50443;SDS011;36370;52.216;21.142;2022-08-04T23:59:21;12.18;;;7.10;;
